Chadron Municipal Airport
KCDR : now visible

Airfield :











YOU CAN JOIN US ON...

 
LOGIN :

Register | Disclaimer

   EN    FR    IT 

 









Legend :    VFR   Marginal VFR   IFR   Intensive IFR   Very Intensive IFR
Visi :
Ceiling :
>= 8 km
>= 3000ft
5 to 8 km
1000 to 3000 ft
1500m to 5 km
500 to 1000 ft
800 to 1500m
200 to 500 ft
< 800m
< 200 ft
Symbols :   Thunderstorms  Fog  Heavy snow  Heavy precipitations  Wind > 20 kt







- Airport Elevation : 3297 ft


KCDR - Chadron Municipal

CURRENT METAR :
  • 222353Z AUTO 16018G23KT 10SM CLR 29/12 A2983 RMK AO2 PK WND 16027/2302 SLP072 T02890122 10300 20261 56014

EXPIRED METARs :
  • 222253Z AUTO 16016G28KT 10SM CLR 30/11 A2983 RMK AO2 PK WND 15030/2234 SLP074 T03000111
  • 222153Z AUTO 18020G26KT 10SM CLR 29/11 A2984 RMK AO2 PK WND 17026/2148 SLP075 T02940111
  • 222053Z AUTO 16020G25KT 10SM CLR 30/12 A2987 RMK AO2 WSHFT 2014 SLP085 T03000122 58014

TAF KCDR
Valid from the 23 at 00:00 until the 24 at 00:00 UTC


222321Z 2300/2324 16014G24KT P6SM SKC
FM230900 17012KT P6SM BKN250
FM231300 17010KT P6SM SCT020 BKN035
No reported NOTAMs for that airfield.



MET'MAP, your aeronautical weather chart ! - Copyright ORBIFLY December 2007 - Disclaimer

ORBIFLY MET'MAP TEAM :

Programming & Development : Alexandra Zaïnal
Concept & Development : Baudouin d'Aumeries
Co-Development & Prog : Marc-Olivier Méhu
Technical & hardware support : Manuel Goepfert

Contact : metmap@orbifly.com




SOURCES & CREDITS :

   NOAA       Earth
Advisory